Time;durP1;ratioP1;P1;durP2;ratioP2;P2;SDS_P1;SDS_P2;PMS_P1;PMS_P2;Temp;Humidity;BMP_temperature;BMP_pressure;BME280_temperature;BME280_humidity;BME280_pressure;Samples;Min_cycle;Max_cycle;Signal;HPM_P1;HPM_P2
2022/09/16 00:00:16;;;;;;;1.35;1.25;;;;;;;14.74;100.00;99165.36;2799020;83;21010;-86
2022/09/16 00:04:19;;;;;;;2.15;1.95;;;;;;;14.73;100.00;99167.71;2828090;83;20983;-86
2022/09/16 00:08:21;;;;;;;3.70;1.70;;;;;;;14.67;100.00;99171.41;2822305;83;20995;-86
2022/09/16 00:12:23;;;;;;;5.25;1.50;;;;;;;14.64;99.76;99165.09;2783999;83;21054;-86
2022/09/16 00:16:26;;;;;;;4.42;2.05;;;;;;;14.62;99.98;99172.47;2827762;81;21566;-86
2022/09/16 00:20:28;;;;;;;4.92;1.70;;;;;;;14.65;100.00;99172.10;2822160;83;21030;-85
2022/09/16 00:24:29;;;;;;;2.25;1.57;;;;;;;14.67;99.71;99174.09;2844981;81;21042;-84
2022/09/16 00:28:31;;;;;;;4.78;1.92;;;;;;;14.76;99.55;99179.42;2783420;83;21050;-85
2022/09/16 00:32:32;;;;;;;5.37;1.82;;;;;;;14.78;98.31;99186.23;2789996;83;21015;-85
2022/09/16 00:36:34;;;;;;;8.03;2.22;;;;;;;14.82;97.76;99183.52;2828512;81;21756;-85
2022/09/16 00:40:44;;;;;;;2.65;1.47;;;;;;;14.89;97.18;99188.98;2852082;81;20987;-85
2022/09/16 00:45:04;;;;;;;2.85;1.55;;;;;;;14.98;97.89;99183.05;2854039;81;21048;-85
2022/09/16 00:49:24;;;;;;;3.62;1.50;;;;;;;15.04;97.03;99181.02;2802127;84;21577;-86
2022/09/16 00:53:31;;;;;;;2.27;1.55;;;;;;;15.10;95.94;99183.44;2777119;85;21627;-86
2022/09/16 00:57:34;;;;;;;1.75;1.10;;;;;;;15.15;96.23;99187.77;2754718;85;21051;-84
2022/09/16 01:01:37;;;;;;;3.35;1.85;;;;;;;15.16;95.92;99192.60;2737423;85;21015;-86
2022/09/16 01:05:39;;;;;;;1.95;1.10;;;;;;;15.17;94.90;99187.56;2769233;85;21035;-85
2022/09/16 01:09:41;;;;;;;2.33;2.12;;;;;;;15.21;95.47;99184.84;2781940;83;21005;-86
2022/09/16 01:13:43;;;;;;;4.97;2.40;;;;;;;15.23;95.34;99183.66;2772438;85;21045;-86
2022/09/16 01:17:53;;;;;;;2.40;1.27;;;;;;;15.23;95.48;99180.97;2798826;84;21576;-86
2022/09/16 01:22:18;;;;;;;2.85;1.65;;;;;;;15.19;95.42;99182.85;2759119;85;21076;-86
2022/09/16 01:27:05;;;;;;;2.67;1.80;;;;;;;15.08;95.81;99189.00;2764881;84;21639;-85
2022/09/16 01:31:27;;;;;;;5.08;1.52;;;;;;;15.06;96.97;99195.54;2783747;84;21072;-85
2022/09/16 01:35:36;;;;;;;5.00;1.60;;;;;;;14.94;96.71;99197.83;2753675;84;21040;-86
2022/09/16 01:40:14;;;;;;;2.12;1.65;;;;;;;14.87;97.54;99189.68;2714144;85;21085;-86
2022/09/16 01:44:41;;;;;;;2.77;1.30;;;;;;;14.82;97.11;99189.39;2599224;90;21095;-85
2022/09/16 01:48:49;;;;;;;;;;;;;;;14.85;97.93;99185.86;2630199;89;21103;-85
2022/09/16 01:53:05;;;;;;;7.92;1.67;;;;;;;14.84;97.90;99188.70;2604323;90;20121;-86
2022/09/16 01:57:35;;;;;;;6.10;1.92;;;;;;;14.87;97.79;99184.84;2590796;89;21109;-86
2022/09/16 02:01:48;;;;;;;3.40;1.72;;;;;;;14.82;97.41;99184.05;2621601;89;21089;-85
2022/09/16 02:06:01;;;;;;;5.08;1.27;;;;;;;14.89;97.25;99188.98;2639991;89;21106;-85
2022/09/16 02:10:08;;;;;;;3.83;1.82;;;;;;;14.85;97.42;99193.05;2625551;89;21610;-85
2022/09/16 02:14:20;;;;;;;4.50;1.45;;;;;;;14.78;98.10;99193.45;2620361;89;21511;-85
2022/09/16 02:18:26;;;;;;;3.92;1.32;;;;;;;14.71;99.29;99184.78;2642155;86;21124;-84
2022/09/16 02:22:36;;;;;;;5.42;1.80;;;;;;;14.68;99.79;99189.66;2757168;85;21038;-85
2022/09/16 02:26:42;;;;;;;4.03;1.57;;;;;;;14.64;99.55;99194.52;2741314;85;21110;-85
2022/09/16 02:30:48;;;;;;;3.72;1.37;;;;;;;14.69;100.00;99188.12;2735002;85;21016;-85
2022/09/16 02:34:53;;;;;;;2.62;1.27;;;;;;;14.52;100.00;99166.51;2740790;85;21063;-85
2022/09/16 02:39:07;;;;;;;1.98;1.17;;;;;;;14.67;100.00;99203.53;2732488;85;21086;-85
2022/09/16 02:43:09;;;;;;;2.85;1.20;;;;;;;14.67;100.00;99203.53;2749812;85;21044;-85
2022/09/16 02:47:42;;;;;;;2.50;1.10;;;;;;;14.71;100.00;99200.03;2737020;85;21806;-85
2022/09/16 02:52:23;;;;;;;2.33;0.88;;;;;;;14.68;100.00;99207.05;2736838;85;21063;-85
2022/09/16 02:56:30;;;;;;;3.70;1.30;;;;;;;14.64;100.00;99205.72;2715084;85;21094;-85
2022/09/16 03:00:36;;;;;;;2.60;1.52;;;;;;;14.66;100.00;99209.89;2760282;84;21593;-85
2022/09/16 03:04:38;;;;;;;2.90;1.30;;;;;;;14.62;100.00;99215.28;2755831;85;21019;-85
2022/09/16 03:08:40;;;;;;;4.97;1.98;;;;;;;14.60;100.00;99216.46;2756149;84;21011;-85
2022/09/16 03:13:22;;;;;;;6.78;1.98;;;;;;;14.64;100.00;99219.95;2743358;85;21054;-85
2022/09/16 03:18:01;;;;;;;2.90;1.47;;;;;;;14.65;100.00;99225.63;2752570;84;21037;-85
2022/09/16 03:22:38;;;;;;;3.25;1.52;;;;;;;14.69;100.00;99223.44;2743434;85;21016;-85
2022/09/16 03:26:53;;;;;;;1.32;1.22;;;;;;;14.68;100.00;99228.46;2673121;88;21055;-85
2022/09/16 03:31:02;;;;;;;1.50;1.20;;;;;;;14.71;100.00;99225.45;2652631;88;21567;-85
2022/09/16 03:35:18;;;;;;;5.97;1.75;;;;;;;14.77;100.00;99219.90;2690048;87;21043;-85
2022/09/16 03:39:21;;;;;;;3.13;1.47;;;;;;;14.79;100.00;99218.69;2680266;88;21111;-85
2022/09/16 03:43:22;;;;;;;2.58;0.82;;;;;;;14.80;100.00;99220.35;2667887;88;21051;-85
2022/09/16 03:47:24;;;;;;;1.37;1.27;;;;;;;14.82;100.00;99216.98;2748871;84;21026;-85
2022/09/16 03:51:25;;;;;;;1.77;1.05;;;;;;;14.84;100.00;99212.80;2763638;84;21680;-85
2022/09/16 03:55:27;;;;;;;1.87;0.80;;;;;;;14.82;100.00;99217.51;2770900;84;21033;-85
2022/09/16 03:59:29;;;;;;;4.25;1.20;;;;;;;14.79;100.00;99213.33;2786151;84;21597;-85
2022/09/16 04:03:30;;;;;;;2.35;0.60;;;;;;;14.68;100.00;99223.11;2851543;82;21112;-85
2022/09/16 04:07:32;;;;;;;2.72;0.82;;;;;;;14.64;100.00;99222.63;2773925;83;21048;-86
2022/09/16 04:11:34;;;;;;;2.15;0.90;;;;;;;14.57;100.00;99223.84;2782650;83;21508;-86
2022/09/16 04:15:37;;;;;;;2.58;0.95;;;;;;;14.63;100.00;99231.67;2843528;82;21002;-86
2022/09/16 04:19:38;;;;;;;2.72;1.15;;;;;;;14.61;100.00;99225.66;2839484;82;21085;-85
2022/09/16 04:23:40;;;;;;;1.77;0.88;;;;;;;14.59;100.00;99223.67;2843787;82;21036;-85
2022/09/16 04:27:41;;;;;;;3.90;1.50;;;;;;;14.52;100.00;99222.21;2849586;81;21033;-85
2022/09/16 04:31:42;;;;;;;4.35;1.22;;;;;;;14.53;100.00;99218.52;2871171;80;20982;-86
2022/09/16 04:35:44;;;;;;;1.47;1.07;;;;;;;14.50;100.00;99219.38;2818822;82;21020;-86
2022/09/16 04:39:45;;;;;;;6.75;1.62;;;;;;;14.48;100.00;99211.55;2804652;83;21608;-86
2022/09/16 04:43:59;;;;;;;2.00;1.25;;;;;;;14.48;100.00;99211.55;2774971;84;21028;-85
2022/09/16 04:47:58;;;;;;;1.37;1.27;;;;;;;14.43;100.00;99213.41;2740329;85;21033;-86
2022/09/16 04:51:59;;;;;;;1.52;1.17;;;;;;;14.49;100.00;99213.70;2745360;85;21030;-86
2022/09/16 04:56:14;;;;;;;3.12;1.82;;;;;;;14.55;100.00;99215.68;2722389;85;21088;-86
2022/09/16 05:00:16;;;;;;;3.70;2.23;;;;;;;14.58;100.00;99211.30;2746524;82;21088;-85
2022/09/16 05:04:17;;;;;;;1.60;1.20;;;;;;;14.63;100.00;99212.94;2730619;85;21537;-85
2022/09/16 05:08:19;;;;;;;1.70;1.45;;;;;;;14.68;100.00;99218.58;2721651;85;21085;-85
2022/09/16 05:12:21;;;;;;;1.98;1.40;;;;;;;14.69;100.00;99215.41;2742385;84;21067;-86
2022/09/16 05:16:23;;;;;;;3.35;2.35;;;;;;;14.76;100.00;99221.73;2726525;85;21570;-86
2022/09/16 05:20:24;;;;;;;3.92;1.52;;;;;;;14.89;100.00;99227.00;2775372;85;21027;-85
2022/09/16 05:24:25;;;;;;;6.03;1.32;;;;;;;14.84;100.00;99226.19;2748330;84;21162;-86
2022/09/16 05:28:27;;;;;;;3.98;1.65;;;;;;;14.88;100.00;99224.81;2734052;85;21025;-86
2022/09/16 05:32:29;;;;;;;2.95;1.50;;;;;;;14.96;100.00;99224.76;2746153;85;21009;-85
2022/09/16 05:36:34;;;;;;;3.10;1.10;;;;;;;14.99;100.00;99224.39;2735173;85;21056;-86
2022/09/16 05:40:35;;;;;;;1.40;0.95;;;;;;;14.93;99.91;99230.45;2734419;85;21486;-85
2022/09/16 05:44:36;;;;;;;4.83;1.10;;;;;;;15.03;100.00;99226.70;2745087;85;21083;-86
2022/09/16 05:48:38;;;;;;;4.17;1.45;;;;;;;15.15;100.00;99227.94;2744287;84;21069;-86
2022/09/16 05:52:39;;;;;;;2.35;1.42;;;;;;;15.33;99.54;99228.08;2748884;84;21089;-86
2022/09/16 05:56:41;;;;;;;10.15;2.40;;;;;;;15.33;97.48;99229.42;2753116;84;21096;-86
2022/09/16 06:00:42;;;;;;;4.50;1.32;;;;;;;15.41;97.74;99222.13;2841181;82;21017;-86
2022/09/16 06:04:43;;;;;;;4.45;1.65;;;;;;;15.82;96.82;99215.48;2856318;82;21045;-86
2022/09/16 06:08:45;;;;;;;1.77;1.17;;;;;;;16.44;93.45;99206.31;2880318;81;21551;-85
2022/09/16 06:12:46;;;;;;;4.37;1.40;;;;;;;16.65;90.12;99211.69;2847797;82;20994;-86
2022/09/16 06:16:48;;;;;;;1.80;0.82;;;;;;;16.86;89.75;99216.73;2839761;82;21021;-87
2022/09/16 06:20:49;;;;;;;4.12;2.02;;;;;;;17.06;87.58;99218.78;2839363;82;21049;-87
2022/09/16 06:24:51;;;;;;;5.25;1.98;;;;;;;17.04;87.30;99223.02;2843534;82;21037;-86
2022/09/16 06:28:52;;;;;;;3.65;1.57;;;;;;;16.87;89.88;99222.41;2840661;82;20977;-87
2022/09/16 06:32:54;;;;;;;2.87;0.80;;;;;;;16.74;91.51;99216.42;2844106;82;21013;-87
2022/09/16 06:36:55;;;;;;;3.52;1.27;;;;;;;16.46;90.20;99209.64;2841135;82;21399;-86
2022/09/16 06:41:02;;;;;;;1.72;1.35;;;;;;;16.20;90.30;99208.34;2814746;82;21551;-86
2022/09/16 06:45:05;;;;;;;3.62;1.60;;;;;;;16.11;93.65;99204.94;2843229;82;21548;-87
2022/09/16 06:49:06;;;;;;;1.40;0.68;;;;;;;16.14;93.93;99204.55;2778720;83;21092;-87
2022/09/16 06:53:08;;;;;;;4.62;1.52;;;;;;;15.95;91.96;99207.33;2775572;84;21614;-87
2022/09/16 06:57:09;;;;;;;2.75;1.42;;;;;;;15.99;92.74;99212.64;2800170;83;21444;-87
2022/09/16 07:01:18;;;;;;;1.57;1.47;;;;;;;16.02;94.52;99214.94;2776214;83;21009;-87
2022/09/16 07:05:20;;;;;;;3.85;1.70;;;;;;;15.92;89.05;99221.94;2783536;84;21074;-88
2022/09/16 07:09:21;;;;;;;5.67;2.17;;;;;;;15.92;90.72;99210.40;2787736;82;21056;-87
2022/09/16 07:13:23;;;;;;;1.90;1.67;;;;;;;15.84;91.25;99215.31;2794834;84;21057;-91
2022/09/16 07:17:26;;;;;;;5.97;1.17;;;;;;;15.78;90.51;99223.59;2803186;83;21041;-90
2022/09/16 07:21:29;;;;;;;4.17;2.27;;;;;;;15.87;90.52;99214.94;2803412;83;21100;-89
2022/09/16 07:25:31;;;;;;;2.85;0.90;;;;;;;15.87;89.50;99221.64;2807751;83;21033;-89
2022/09/16 07:29:32;;;;;;;4.97;1.22;;;;;;;15.76;86.94;99218.08;2775753;83;21774;-89
2022/09/16 07:33:42;;;;;;;2.33;1.32;;;;;;;15.76;84.94;99226.97;2797125;83;21084;-90
2022/09/16 07:37:44;;;;;;;1.22;0.82;;;;;;;15.77;87.35;99226.44;2803627;83;21037;-90
2022/09/16 07:41:47;;;;;;;2.37;1.27;;;;;;;15.78;86.20;99217.38;2789993;83;21104;-88
2022/09/16 07:45:57;;;;;;;6.78;1.70;;;;;;;15.82;88.92;99212.81;2809985;83;21614;-89
2022/09/16 07:49:58;;;;;;;2.15;1.55;;;;;;;15.88;88.29;99226.48;2788535;83;21012;-87
2022/09/16 07:54:04;;;;;;;2.55;1.22;;;;;;;15.91;87.19;99226.98;2810130;83;21520;-89
2022/09/16 07:58:06;;;;;;;6.30;1.17;;;;;;;16.19;87.60;99228.14;2742742;85;21038;-88
2022/09/16 08:02:08;;;;;;;1.60;1.40;;;;;;;16.34;83.71;99222.23;2809616;83;21016;-90
2022/09/16 08:06:15;;;;;;;3.02;1.22;;;;;;;16.40;85.99;99231.35;2787389;83;21622;-89
2022/09/16 08:10:16;;;;;;;3.05;1.45;;;;;;;16.28;84.04;99245.77;2785447;83;21572;-89
2022/09/16 08:14:17;;;;;;;1.47;1.12;;;;;;;16.73;87.39;99229.53;2796806;83;21054;-89
2022/09/16 08:18:19;;;;;;;3.98;1.27;;;;;;;16.93;83.10;99237.78;2776853;83;21563;-89
2022/09/16 08:22:22;;;;;;;1.80;1.02;;;;;;;17.16;83.45;99234.56;2786688;83;21028;-88
2022/09/16 08:26:24;;;;;;;3.33;1.25;;;;;;;17.19;83.92;99232.33;2729310;85;21030;-88
2022/09/16 08:30:26;;;;;;;2.92;1.10;;;;;;;17.28;80.74;99233.02;2803157;83;21028;-90
2022/09/16 08:34:27;;;;;;;1.90;0.90;;;;;;;16.65;79.47;99218.92;2812312;83;21024;-90
2022/09/16 08:38:30;;;;;;;1.72;1.17;;;;;;;16.26;83.68;99216.96;2810139;83;21547;-90
2022/09/16 08:42:54;;;;;;;1.22;0.72;;;;;;;16.02;84.43;99232.38;2809459;83;21134;-90
2022/09/16 08:47:15;;;;;;;2.95;1.07;;;;;;;16.04;85.83;99232.20;2802425;83;21082;-89
2022/09/16 08:51:19;;;;;;;5.33;1.00;;;;;;;16.32;82.11;99233.67;2781111;83;21034;-91
2022/09/16 08:55:31;;;;;;;1.05;0.50;;;;;;;16.66;83.26;99220.59;2817322;83;21042;-90
2022/09/16 08:59:39;;;;;;;1.17;0.82;;;;;;;16.72;80.80;99235.92;2790566;83;20994;-90
2022/09/16 09:03:43;;;;;;;1.52;0.70;;;;;;;16.65;80.56;99236.38;2787250;83;21029;-90
2022/09/16 09:08:08;;;;;;;1.17;1.05;;;;;;;16.66;78.87;99230.80;2808159;83;21078;-89
2022/09/16 09:12:59;;;;;;;1.25;0.68;;;;;;;16.69;80.76;99235.78;2794660;84;21370;-88
2022/09/16 09:17:38;;;;;;;1.42;0.82;;;;;;;16.47;76.66;99240.33;2789844;84;21025;-89
2022/09/16 09:21:54;;;;;;;1.57;0.60;;;;;;;16.16;75.68;99239.25;2762408;86;21631;-89
2022/09/16 09:26:23;;;;;;;2.90;0.57;;;;;;;16.13;78.62;99229.22;2745442;84;21085;-88
2022/09/16 09:30:27;;;;;;;2.45;0.68;;;;;;;16.16;75.86;99223.16;2760233;85;21575;-89
2022/09/16 09:35:03;;;;;;;1.92;0.50;;;;;;;16.30;77.62;99218.23;2735396;86;21039;-90
2022/09/16 09:39:21;;;;;;;0.90;0.90;;;;;;;16.35;76.90;99223.89;2639853;88;21055;-89
2022/09/16 09:43:37;;;;;;;8.95;1.22;;;;;;;16.59;74.58;99215.15;2633600;88;21076;-90
2022/09/16 09:47:54;;;;;;;4.28;0.42;;;;;;;16.78;74.55;99220.91;2662472;86;21039;-90
2022/09/16 09:52:18;;;;;;;2.70;0.50;;;;;;;16.60;74.11;99224.86;2656591;86;21098;-90
2022/09/16 09:56:36;;;;;;;1.62;0.37;;;;;;;16.55;73.38;99222.74;2702614;86;21030;-89
2022/09/16 10:00:38;;;;;;;4.10;1.90;;;;;;;16.56;75.46;99216.87;2708163;86;21115;-90
2022/09/16 10:04:39;;;;;;;2.15;0.53;;;;;;;16.61;76.39;99212.28;2705939;86;21098;-91
2022/09/16 10:08:48;;;;;;;1.82;0.88;;;;;;;16.92;77.04;99206.58;2708799;86;21142;-90
2022/09/16 10:12:50;;;;;;;2.85;0.45;;;;;;;17.30;76.09;99215.36;2684854;86;21073;-88
2022/09/16 10:16:53;;;;;;;1.57;0.70;;;;;;;17.48;71.90;99194.69;2784472;83;21032;-87
2022/09/16 10:21:12;;;;;;;5.97;1.17;;;;;;;17.56;72.58;99195.86;2815986;83;21014;-88
2022/09/16 10:25:25;;;;;;;3.98;1.72;;;;;;;17.78;75.60;99200.64;2769142;84;21057;-89
2022/09/16 10:29:27;;;;;;;4.53;1.17;;;;;;;17.93;72.74;99205.05;2747307;84;21581;-90
2022/09/16 10:33:33;;;;;;;0.70;0.40;;;;;;;18.21;72.48;99198.75;2814129;83;21470;-90
2022/09/16 10:37:36;;;;;;;9.05;0.95;;;;;;;18.54;72.12;99199.36;2809801;83;21526;-89
2022/09/16 10:41:45;;;;;;;2.22;1.52;;;;;;;18.69;69.34;99190.58;2753017;86;20970;-89
2022/09/16 10:45:50;;;;;;;3.12;1.02;;;;;;;18.84;71.45;99193.06;2768859;84;21078;-90
2022/09/16 10:49:56;;;;;;;4.95;1.57;;;;;;;18.45;70.09;99192.48;2753655;82;21600;-88
2022/09/16 10:54:00;;;;;;;5.83;0.53;;;;;;;18.28;70.58;99196.92;2822740;82;21087;-89
2022/09/16 10:58:13;;;;;;;0.72;0.40;;;;;;;17.94;74.68;99184.66;2836981;82;21526;-90
2022/09/16 11:02:38;;;;;;;1.77;0.60;;;;;;;17.51;71.04;99200.51;2819248;82;21002;-90
2022/09/16 11:06:47;;;;;;;0.93;0.82;;;;;;;17.70;73.48;99194.09;2846505;82;21019;-90
2022/09/16 11:11:02;;;;;;;6.10;0.90;;;;;;;17.72;69.20;99190.69;2807956;82;20998;-90
2022/09/16 11:15:30;;;;;;;2.20;0.85;;;;;;;17.85;73.20;99182.66;2822533;82;21037;-93
2022/09/16 11:19:49;;;;;;;2.67;1.05;;;;;;;18.12;71.61;99173.38;2814689;82;21128;-90
2022/09/16 11:24:28;;;;;;;5.67;1.00;;;;;;;18.22;69.77;99173.50;2836889;82;20986;-92
2022/09/16 11:29:03;;;;;;;9.58;1.27;;;;;;;18.07;69.43;99163.72;2831273;82;21054;-93
2022/09/16 11:33:13;;;;;;;3.40;0.50;;;;;;;18.16;68.56;99158.98;2825735;82;21552;-91
2022/09/16 11:37:43;;;;;;;3.95;0.65;;;;;;;18.26;72.04;99159.94;2843554;82;21084;-91
2022/09/16 11:42:01;;;;;;;3.47;0.65;;;;;;;18.35;70.66;99155.19;2817540;82;21018;-91
2022/09/16 11:46:42;;;;;;;3.35;1.17;;;;;;;18.30;71.33;99146.41;2847789;82;21176;-94
2022/09/16 11:51:13;;;;;;;0.88;0.40;;;;;;;18.27;70.79;99131.98;2843578;82;21006;-93
2022/09/16 11:55:35;;;;;;;3.12;0.40;;;;;;;18.43;67.88;99135.33;2836915;82;21065;-91
2022/09/16 12:00:00;;;;;;;0.93;0.40;;;;;;;18.49;63.69;99147.98;2813769;82;20999;-92
2022/09/16 12:04:21;;;;;;;2.58;0.30;;;;;;;18.56;65.07;99147.47;2867592;80;21053;-93
2022/09/16 12:08:37;;;;;;;1.62;0.33;;;;;;;18.73;67.10;99146.52;2823218;81;21630;-92
2022/09/16 12:12:44;;;;;;;;;;;;;;;18.87;65.67;99154.61;2877612;81;21100;-91
2022/09/16 12:16:56;;;;;;;0.90;0.37;;;;;;;19.03;66.85;99146.14;2837131;82;20140;-93
2022/09/16 12:21:24;;;;;;;2.45;0.85;;;;;;;19.04;63.15;99142.41;2830922;81;21029;-92
2022/09/16 12:25:34;;;;;;;0.72;0.40;;;;;;;19.05;67.21;99138.67;2837875;82;21030;-92
2022/09/16 12:29:59;;;;;;;2.12;0.42;;;;;;;19.06;64.64;99132.75;2830526;82;21077;-93
2022/09/16 12:34:17;;;;;;;2.30;1.32;;;;;;;18.90;63.92;99129.44;2868056;81;21057;-92
2022/09/16 12:38:21;;;;;;;1.85;0.40;;;;;;;18.48;65.77;99159.80;2834233;81;20997;-92
2022/09/16 12:42:37;;;;;;;0.30;0.30;;;;;;;16.92;72.54;99179.72;2854433;80;21018;-93
2022/09/16 12:47:14;;;;;;;1.60;0.28;;;;;;;15.99;78.47;99193.86;2873967;81;21022;-93
2022/09/16 12:51:48;;;;;;;0.40;0.20;;;;;;;15.74;83.53;99195.50;2817756;83;21058;-91
2022/09/16 12:56:01;;;;;;;0.00;0.00;;;;;;;15.65;89.19;99185.37;2823947;82;21362;-91
2022/09/16 13:00:21;;;;;;;0.88;0.20;;;;;;;15.48;86.66;99174.00;2817812;83;21131;-92
2022/09/16 13:04:37;;;;;;;1.17;0.40;;;;;;;15.50;88.29;99159.91;2824911;81;20987;-91
2022/09/16 13:08:38;;;;;;;0.10;0.10;;;;;;;15.73;83.49;99150.94;2835679;81;21085;-91
2022/09/16 13:12:39;;;;;;;0.35;0.30;;;;;;;15.94;82.34;99150.17;2781476;83;21097;-91
2022/09/16 13:16:46;;;;;;;1.32;0.55;;;;;;;16.21;81.74;99136.22;2829423;83;21081;-92
2022/09/16 13:20:58;;;;;;;0.50;0.30;;;;;;;16.48;82.09;99129.75;2851850;81;21011;-91
2022/09/16 13:25:20;;;;;;;2.98;0.42;;;;;;;16.92;82.26;99130.52;2818293;83;21140;-91
2022/09/16 13:29:42;;;;;;;0.98;0.53;;;;;;;17.35;82.61;99125.56;2817812;83;21609;-92
2022/09/16 13:33:58;;;;;;;2.67;0.93;;;;;;;17.24;76.91;99113.52;2816078;83;21038;-90
2022/09/16 13:38:20;;;;;;;5.65;1.27;;;;;;;17.45;82.11;99121.16;2824499;81;21526;-94
2022/09/16 13:42:23;;;;;;;6.17;1.35;;;;;;;17.90;79.17;99127.45;2817870;83;21519;-92
2022/09/16 13:46:31;;;;;;;3.72;0.68;;;;;;;18.15;78.71;99120.19;2817661;83;21038;-93
2022/09/16 13:50:35;;;;;;;0.70;0.40;;;;;;;18.03;74.34;99112.70;2796793;83;21054;-92
2022/09/16 13:54:49;;;;;;;2.62;0.82;;;;;;;18.18;74.75;99113.05;2824580;83;21613;-92
2022/09/16 13:59:23;;;;;;;1.25;0.50;;;;;;;18.13;73.83;99098.84;2824632;83;21058;-92
2022/09/16 14:03:59;;;;;;;2.15;0.35;;;;;;;17.92;75.10;99110.59;2841930;81;21645;-93
2022/09/16 14:08:51;;;;;;;0.62;0.35;;;;;;;17.35;75.36;99100.03;2811841;83;21006;-93
2022/09/16 14:13:15;;;;;;;0.30;0.30;;;;;;;16.96;74.96;99139.84;2817171;83;21569;-91
2022/09/16 14:17:24;;;;;;;0.82;0.45;;;;;;;16.53;77.00;99135.40;2824843;83;21097;-91
2022/09/16 14:21:25;;;;;;;1.32;0.53;;;;;;;16.37;81.22;99140.00;2824709;81;21030;-92
2022/09/16 14:25:34;;;;;;;0.35;0.25;;;;;;;16.36;81.32;99130.29;2817934;83;21549;-93
2022/09/16 14:29:36;;;;;;;2.58;0.62;;;;;;;16.23;81.86;99119.42;2834724;82;20971;-92
2022/09/16 14:33:42;;;;;;;0.55;0.25;;;;;;;16.36;82.65;99121.39;2825267;81;21069;-92
2022/09/16 14:37:49;;;;;;;0.85;0.40;;;;;;;16.42;81.89;99118.77;2834875;82;20986;-92
2022/09/16 14:42:02;;;;;;;2.00;0.82;;;;;;;16.41;84.05;99111.75;2834724;82;21682;-91
2022/09/16 14:46:07;;;;;;;1.15;0.50;;;;;;;16.64;81.09;99106.66;2840919;82;22298;-93
2022/09/16 14:50:17;;;;;;;6.78;1.05;;;;;;;16.93;81.78;99095.42;2821447;82;21033;-92
2022/09/16 14:54:21;;;;;;;0.72;0.72;;;;;;;16.97;82.16;99102.05;2796452;83;21043;-91
2022/09/16 14:58:26;;;;;;;0.40;0.40;;;;;;;16.92;81.17;99089.73;2848975;82;21573;-92
2022/09/16 15:02:39;;;;;;;1.67;0.57;;;;;;;16.88;77.85;99093.82;2814886;82;21017;-92
2022/09/16 15:06:46;;;;;;;0.90;0.40;;;;;;;17.16;80.99;99078.73;2844331;82;21041;-92
2022/09/16 15:10:52;;;;;;;1.62;0.82;;;;;;;17.35;78.47;99075.84;2837053;82;21009;-92
2022/09/16 15:14:53;;;;;;;1.15;0.40;;;;;;;17.43;76.05;99082.38;2816016;82;20989;-91
2022/09/16 15:19:02;;;;;;;0.35;0.20;;;;;;;17.54;76.95;99076.94;2843410;82;21045;-91
2022/09/16 15:23:06;;;;;;;2.15;0.57;;;;;;;17.60;76.39;99075.31;2850802;81;21017;-92
2022/09/16 15:27:07;;;;;;;0.98;0.47;;;;;;;17.49;75.50;99076.72;2843766;82;20982;-90
2022/09/16 15:31:11;;;;;;;0.85;0.45;;;;;;;17.63;74.88;99073.55;2849093;82;20974;-92
2022/09/16 15:35:29;;;;;;;0.50;0.45;;;;;;;17.42;67.19;99092.81;2901934;81;20970;-92
2022/09/16 15:39:37;;;;;;;0.53;0.33;;;;;;;17.34;68.43;99067.46;2810211;82;21076;-92
2022/09/16 15:43:42;;;;;;;0.20;0.15;;;;;;;17.26;67.91;99080.55;2850444;81;21801;-92
2022/09/16 15:48:03;;;;;;;0.28;0.10;;;;;;;17.17;69.09;99081.23;2850768;82;21049;-91
2022/09/16 15:52:08;;;;;;;1.40;0.28;;;;;;;17.07;68.42;99082.09;2822635;83;21069;-92
2022/09/16 15:56:34;;;;;;;0.93;0.20;;;;;;;16.95;70.43;99081.28;2809943;83;21644;-88
2022/09/16 16:01:05;;;;;;;0.37;0.20;;;;;;;16.85;70.07;99084.81;2805960;83;21112;-92
2022/09/16 16:05:14;;;;;;;3.62;0.50;;;;;;;16.88;72.57;99084.95;2816287;83;21006;-92
2022/09/16 16:09:32;;;;;;;0.47;0.28;;;;;;;16.85;72.69;99084.81;2820461;83;21517;-93
2022/09/16 16:13:33;;;;;;;0.55;0.20;;;;;;;16.72;73.57;99084.75;2787349;83;21042;-92
2022/09/16 16:17:35;;;;;;;0.40;0.40;;;;;;;16.61;73.04;99081.55;2821910;83;21086;-94
2022/09/16 16:21:44;;;;;;;0.80;0.15;;;;;;;16.46;72.46;99071.42;2798269;83;21720;-92
2022/09/16 16:25:42;;;;;;;;;;;;;;;16.34;73.53;99073.80;2791654;81;21066;-90
2022/09/16 16:29:43;;;;;;;2.30;1.05;;;;;;;16.02;72.06;99073.32;2802642;83;20503;-92
2022/09/16 16:33:46;;;;;;;2.62;0.28;;;;;;;15.95;74.56;99079.95;2804944;83;21172;-92
2022/09/16 16:37:48;;;;;;;2.87;0.40;;;;;;;15.83;75.16;99075.05;2820976;83;21081;-91
2022/09/16 16:41:52;;;;;;;9.58;0.70;;;;;;;15.88;77.25;99079.00;2793811;83;21040;-88
2022/09/16 16:45:57;;;;;;;0.55;0.30;;;;;;;15.87;78.45;99081.36;2750414;83;21019;-93
2022/09/16 16:50:00;;;;;;;0.70;0.60;;;;;;;15.91;78.18;99081.33;2813651;83;21397;-91
2022/09/16 16:54:02;;;;;;;1.15;0.40;;;;;;;15.88;77.46;99084.36;2784576;84;20986;-92
2022/09/16 16:58:03;;;;;;;2.98;0.60;;;;;;;15.88;77.73;99080.34;2818885;83;21046;-92
2022/09/16 17:02:04;;;;;;;1.55;0.78;;;;;;;15.90;79.24;99079.67;2809146;83;21026;-91
2022/09/16 17:06:07;;;;;;;2.22;0.90;;;;;;;15.92;79.95;99094.56;2821240;83;21570;-92
2022/09/16 17:10:09;;;;;;;1.42;0.68;;;;;;;15.83;78.09;99091.66;2798350;83;21022;-93
2022/09/16 17:14:10;;;;;;;0.45;0.30;;;;;;;15.74;78.00;99092.78;2820283;82;21655;-90
2022/09/16 17:18:12;;;;;;;2.00;0.55;;;;;;;15.54;77.63;99096.05;2821157;83;21045;-91
2022/09/16 17:22:13;;;;;;;10.18;0.80;;;;;;;15.31;79.83;99105.54;2796185;83;20991;-91
2022/09/16 17:26:15;;;;;;;1.35;0.78;;;;;;;15.19;82.20;99106.02;2811103;84;20991;-88
2022/09/16 17:30:16;;;;;;;1.17;0.70;;;;;;;15.05;83.69;99110.37;2732380;83;21057;-91
2022/09/16 17:34:18;;;;;;;1.30;0.35;;;;;;;14.91;84.73;99102.63;2812257;83;20971;-90
2022/09/16 17:38:19;;;;;;;1.10;0.50;;;;;;;14.80;85.64;99107.11;2806999;83;21066;-90
2022/09/16 17:42:20;;;;;;;1.92;0.50;;;;;;;14.73;84.99;99109.67;2751207;83;21073;-90
2022/09/16 17:46:26;;;;;;;0.78;0.42;;;;;;;14.65;84.66;99109.73;2791823;83;21022;-91
2022/09/16 17:50:27;;;;;;;0.82;0.35;;;;;;;14.54;84.76;99116.31;2813374;83;21077;-90
2022/09/16 17:54:28;;;;;;;1.72;0.93;;;;;;;14.38;86.55;99114.12;2779889;83;21065;-93
2022/09/16 17:58:30;;;;;;;5.05;2.22;;;;;;;14.25;88.20;99116.07;2773047;83;21065;-91
2022/09/16 18:02:34;;;;;;;2.90;2.00;;;;;;;14.16;87.90;99118.46;2788686;83;21096;-90
2022/09/16 18:06:44;;;;;;;4.53;2.45;;;;;;;14.09;87.69;99118.33;2771477;83;21002;-90
2022/09/16 18:10:53;;;;;;;2.55;1.60;;;;;;;13.99;87.87;99121.23;2799354;83;21427;-91
2022/09/16 18:14:55;;;;;;;4.33;1.85;;;;;;;13.97;87.38;99123.78;2784414;83;21072;-87
2022/09/16 18:19:00;;;;;;;8.75;3.80;;;;;;;13.91;87.12;99121.79;2797958;83;21081;-91
2022/09/16 18:23:01;;;;;;;3.10;2.25;;;;;;;13.88;86.76;99124.82;2802257;83;21045;-90
2022/09/16 18:27:03;;;;;;;3.65;1.80;;;;;;;13.87;86.87;99133.84;2782695;85;21049;-91
2022/09/16 18:31:11;;;;;;;4.85;2.77;;;;;;;13.82;86.59;99136.55;2784948;85;21029;-91
2022/09/16 18:35:12;;;;;;;2.05;1.32;;;;;;;13.81;86.56;99130.88;2790253;83;21057;-89
2022/09/16 18:39:15;;;;;;;4.72;1.90;;;;;;;13.81;86.92;99139.38;2789506;83;21018;-90
2022/09/16 18:43:17;;;;;;;2.47;1.25;;;;;;;13.79;87.06;99140.91;2803027;83;21026;-91
2022/09/16 18:47:18;;;;;;;2.20;1.20;;;;;;;13.78;87.14;99135.23;2749550;85;21031;-91
2022/09/16 18:51:35;;;;;;;2.05;1.45;;;;;;;13.70;87.80;99143.28;2695770;84;21002;-91
2022/09/16 18:55:36;;;;;;;1.40;0.80;;;;;;;13.65;88.06;99141.64;2692978;86;21067;-90
2022/09/16 18:59:38;;;;;;;2.02;0.55;;;;;;;13.60;87.61;99139.48;2720637;85;21597;-91
2022/09/16 19:03:39;;;;;;;1.80;1.07;;;;;;;13.60;87.38;99136.81;2678280;86;21194;-92
2022/09/16 19:07:40;;;;;;;1.07;0.60;;;;;;;13.53;87.15;99139.34;2696026;86;21047;-90
2022/09/16 19:11:42;;;;;;;0.70;0.70;;;;;;;13.55;86.97;99148.02;2768894;85;21038;-90
2022/09/16 19:15:44;;;;;;;2.70;0.85;;;;;;;13.52;86.71;99144.36;2673194;86;21074;-91
2022/09/16 19:19:49;;;;;;;1.05;0.93;;;;;;;13.51;86.83;99137.34;2717783;85;21036;-90
2022/09/16 19:23:57;;;;;;;0.65;0.60;;;;;;;13.48;87.16;99135.03;2735187;85;21039;-88
2022/09/16 19:27:58;;;;;;;1.67;0.55;;;;;;;13.41;87.31;99139.37;2736099;85;21043;-90